sensor_id;sensor_type;location;lat;lon;timestamp;pressure;altitude;pressure_sealevel;temperature;humidity
65718;BME280;52445;52.466;-1.016;2022-12-07T00:03:56;100984.25;;;1.90;80.78
65718;BME280;52445;52.466;-1.016;2022-12-07T00:06:27;100988.34;;;1.87;81.29
65718;BME280;52445;52.466;-1.016;2022-12-07T00:08:54;100979.72;;;1.85;79.74
65718;BME280;52445;52.466;-1.016;2022-12-07T00:11:21;100984.84;;;1.85;79.98
65718;BME280;52445;52.466;-1.016;2022-12-07T00:13:53;100978.72;;;1.81;79.53
65718;BME280;52445;52.466;-1.016;2022-12-07T00:16:21;100967.59;;;1.80;79.91
65718;BME280;52445;52.466;-1.016;2022-12-07T00:18:48;100964.13;;;1.78;81.02
65718;BME280;52445;52.466;-1.016;2022-12-07T00:21:18;100970.16;;;1.80;80.35
65718;BME280;52445;52.466;-1.016;2022-12-07T00:23:47;100972.72;;;1.80;81.21
65718;BME280;52445;52.466;-1.016;2022-12-07T00:26:18;100973.53;;;1.79;80.02
65718;BME280;52445;52.466;-1.016;2022-12-07T00:28:47;100979.44;;;1.78;80.47
65718;BME280;52445;52.466;-1.016;2022-12-07T00:31:15;100974.34;;;1.78;80.70
65718;BME280;52445;52.466;-1.016;2022-12-07T00:33:43;100967.50;;;1.77;81.61
65718;BME280;52445;52.466;-1.016;2022-12-07T00:36:12;100960.59;;;1.76;80.22
65718;BME280;52445;52.466;-1.016;2022-12-07T00:38:39;100967.41;;;1.76;81.26
65718;BME280;52445;52.466;-1.016;2022-12-07T00:41:09;100966.53;;;1.75;81.57
65718;BME280;52445;52.466;-1.016;2022-12-07T00:43:36;100955.22;;;1.70;81.56
65718;BME280;52445;52.466;-1.016;2022-12-07T00:46:03;100961.19;;;1.71;81.59
65718;BME280;52445;52.466;-1.016;2022-12-07T00:48:30;100955.22;;;1.70;81.24
65718;BME280;52445;52.466;-1.016;2022-12-07T00:50:57;100954.34;;;1.70;81.29
65718;BME280;52445;52.466;-1.016;2022-12-07T00:53:24;100955.94;;;1.67;81.01
65718;BME280;52445;52.466;-1.016;2022-12-07T00:55:51;100955.88;;;1.66;81.97
65718;BME280;52445;52.466;-1.016;2022-12-07T00:58:19;100949.97;;;1.67;81.13
65718;BME280;52445;52.466;-1.016;2022-12-07T01:00:46;100953.31;;;1.66;81.33
65718;BME280;52445;52.466;-1.016;2022-12-07T01:03:16;100951.69;;;1.68;81.16
65718;BME280;52445;52.466;-1.016;2022-12-07T01:05:53;100958.56;;;1.69;81.45
65718;BME280;52445;52.466;-1.016;2022-12-07T01:08:20;100953.44;;;1.69;81.98
65718;BME280;52445;52.466;-1.016;2022-12-07T01:10:48;100945.00;;;1.70;81.00
65718;BME280;52445;52.466;-1.016;2022-12-07T01:13:15;100955.22;;;1.70;80.63
65718;BME280;52445;52.466;-1.016;2022-12-07T01:15:43;100958.56;;;1.69;81.35
65718;BME280;52445;52.466;-1.016;2022-12-07T01:18:10;100955.06;;;1.67;80.88
65718;BME280;52445;52.466;-1.016;2022-12-07T01:20:37;100965.28;;;1.67;80.68
65718;BME280;52445;52.466;-1.016;2022-12-07T01:23:04;100965.13;;;1.64;80.68
65718;BME280;52445;52.466;-1.016;2022-12-07T01:25:30;100963.22;;;1.60;81.35
65718;BME280;52445;52.466;-1.016;2022-12-07T01:27:57;100964.78;;;1.56;80.95
65718;BME280;52445;52.466;-1.016;2022-12-07T01:30:24;100966.28;;;1.52;80.45
65718;BME280;52445;52.466;-1.016;2022-12-07T01:32:51;100958.47;;;1.49;81.12
65718;BME280;52445;52.466;-1.016;2022-12-07T01:35:17;100964.22;;;1.45;80.12
65718;BME280;52445;52.466;-1.016;2022-12-07T01:37:44;100970.94;;;1.43;81.52
65718;BME280;52445;52.466;-1.016;2022-12-07T01:40:11;100964.78;;;1.39;81.12
65718;BME280;52445;52.466;-1.016;2022-12-07T01:42:38;100961.22;;;1.36;80.12
65718;BME280;52445;52.466;-1.016;2022-12-07T01:45:40;100969.47;;;1.30;80.95
65718;BME280;52445;52.466;-1.016;2022-12-07T01:48:09;100959.16;;;1.28;81.17
65718;BME280;52445;52.466;-1.016;2022-12-07T01:50:38;100961.72;;;1.28;79.97
65718;BME280;52445;52.466;-1.016;2022-12-07T01:53:06;100964.91;;;1.24;81.03
65718;BME280;52445;52.466;-1.016;2022-12-07T01:55:37;100964.03;;;1.24;80.60
65718;BME280;52445;52.466;-1.016;2022-12-07T01:58:05;100954.53;;;1.21;81.41
65718;BME280;52445;52.466;-1.016;2022-12-07T02:00:32;100951.06;;;1.19;80.29
65718;BME280;52445;52.466;-1.016;2022-12-07T02:03:19;100952.66;;;1.17;80.41
65718;BME280;52445;52.466;-1.016;2022-12-07T02:05:49;100962.84;;;1.17;81.27
65718;BME280;52445;52.466;-1.016;2022-12-07T02:08:17;100958.56;;;1.16;81.40
65718;BME280;52445;52.466;-1.016;2022-12-07T02:10:44;100957.59;;;1.14;79.71
65718;BME280;52445;52.466;-1.016;2022-12-07T02:13:16;100962.53;;;1.11;80.11
65718;BME280;52445;52.466;-1.016;2022-12-07T02:15:57;100957.28;;;1.08;80.79
65718;BME280;52445;52.466;-1.016;2022-12-07T02:24:24;100955.88;;;0.96;80.75
65718;BME280;52445;52.466;-1.016;2022-12-07T02:32:59;100957.81;;;0.84;80.70
65718;BME280;52445;52.466;-1.016;2022-12-07T02:41:12;100946.38;;;0.77;80.76
65718;BME280;52445;52.466;-1.016;2022-12-07T02:43:58;100937.78;;;0.75;80.53
65718;BME280;52445;52.466;-1.016;2022-12-07T02:46:30;100941.19;;;0.75;80.44
65718;BME280;52445;52.466;-1.016;2022-12-07T02:48:58;100943.66;;;0.74;80.52
65718;BME280;52445;52.466;-1.016;2022-12-07T02:51:30;100936.91;;;0.74;80.84
65718;BME280;52445;52.466;-1.016;2022-12-07T02:53:57;100934.19;;;0.71;79.85
65718;BME280;52445;52.466;-1.016;2022-12-07T03:16:28;100918.75;;;0.68;80.70
65718;BME280;52445;52.466;-1.016;2022-12-07T03:19:01;100918.66;;;0.67;79.93
65718;BME280;52445;52.466;-1.016;2022-12-07T03:21:36;100910.94;;;0.65;80.27
65718;BME280;52445;52.466;-1.016;2022-12-07T03:24:08;100913.47;;;0.65;81.03
65718;BME280;52445;52.466;-1.016;2022-12-07T03:26:42;100917.63;;;0.63;80.78
65718;BME280;52445;52.466;-1.016;2022-12-07T03:29:18;100914.13;;;0.61;80.23
65718;BME280;52445;52.466;-1.016;2022-12-07T03:31:53;100902.16;;;0.60;80.58
65718;BME280;52445;52.466;-1.016;2022-12-07T03:34:28;100898.66;;;0.58;80.10
65718;BME280;52445;52.466;-1.016;2022-12-07T03:39:38;100898.41;;;0.53;80.10
65718;BME280;52445;52.466;-1.016;2022-12-07T03:42:07;100887.38;;;0.53;80.13
65718;BME280;52445;52.466;-1.016;2022-12-07T03:44:36;100897.41;;;0.49;80.46
65718;BME280;52445;52.466;-1.016;2022-12-07T03:52:28;100901.34;;;0.44;79.69
65718;BME280;52445;52.466;-1.016;2022-12-07T03:57:34;100900.41;;;0.42;80.81
65718;BME280;52445;52.466;-1.016;2022-12-07T04:00:05;100896.13;;;0.41;80.73
65718;BME280;52445;52.466;-1.016;2022-12-07T04:02:32;100898.41;;;0.36;80.23
65718;BME280;52445;52.466;-1.016;2022-12-07T04:05:00;100897.53;;;0.36;80.26
65718;BME280;52445;52.466;-1.016;2022-12-07T04:07:27;100895.88;;;0.36;80.59
65718;BME280;52445;52.466;-1.016;2022-12-07T04:09:54;100894.03;;;0.34;80.89
65718;BME280;52445;52.466;-1.016;2022-12-07T04:12:21;100892.28;;;0.33;80.92
65718;BME280;52445;52.466;-1.016;2022-12-07T04:14:48;100900.72;;;0.32;80.85
65718;BME280;52445;52.466;-1.016;2022-12-07T04:17:15;100903.25;;;0.32;80.15
65718;BME280;52445;52.466;-1.016;2022-12-07T04:19:42;100904.97;;;0.31;80.68
65718;BME280;52445;52.466;-1.016;2022-12-07T04:22:08;100902.41;;;0.31;80.74
65718;BME280;52445;52.466;-1.016;2022-12-07T04:24:35;100893.88;;;0.31;79.92
65718;BME280;52445;52.466;-1.016;2022-12-07T04:27:02;100897.38;;;0.33;80.14
65718;BME280;52445;52.466;-1.016;2022-12-07T04:29:28;100902.47;;;0.33;79.95
65718;BME280;52445;52.466;-1.016;2022-12-07T04:31:55;100899.22;;;0.35;81.05
65718;BME280;52445;52.466;-1.016;2022-12-07T04:34:22;100897.53;;;0.36;80.04
65718;BME280;52445;52.466;-1.016;2022-12-07T04:36:48;100901.06;;;0.38;80.46
65718;BME280;52445;52.466;-1.016;2022-12-07T04:41:55;100892.59;;;0.39;79.93
65718;BME280;52445;52.466;-1.016;2022-12-07T04:44:23;100894.34;;;0.40;80.57
65718;BME280;52445;52.466;-1.016;2022-12-07T04:46:51;100890.84;;;0.38;80.56
65718;BME280;52445;52.466;-1.016;2022-12-07T04:49:18;100890.84;;;0.38;79.97
65718;BME280;52445;52.466;-1.016;2022-12-07T04:51:45;100884.88;;;0.37;80.95
65718;BME280;52445;52.466;-1.016;2022-12-07T04:54:14;100882.25;;;0.36;80.28
65718;BME280;52445;52.466;-1.016;2022-12-07T04:56:41;100885.59;;;0.35;79.97
65718;BME280;52445;52.466;-1.016;2022-12-07T04:59:10;100881.13;;;0.31;79.56
65718;BME280;52445;52.466;-1.016;2022-12-07T05:01:37;100885.25;;;0.29;80.35
65718;BME280;52445;52.466;-1.016;2022-12-07T05:04:04;100877.47;;;0.25;80.46
65718;BME280;52445;52.466;-1.016;2022-12-07T05:06:30;100884.06;;;0.22;80.35
65718;BME280;52445;52.466;-1.016;2022-12-07T05:08:57;100878.03;;;0.20;80.52
65718;BME280;52445;52.466;-1.016;2022-12-07T05:11:24;100879.69;;;0.19;80.14
65718;BME280;52445;52.466;-1.016;2022-12-07T05:14:13;100881.25;;;0.17;79.99
65718;BME280;52445;52.466;-1.016;2022-12-07T05:16:41;100882.94;;;0.17;80.38
65718;BME280;52445;52.466;-1.016;2022-12-07T05:19:09;100882.78;;;0.14;80.20
65718;BME280;52445;52.466;-1.016;2022-12-07T05:21:36;100884.34;;;0.11;80.46
65718;BME280;52445;52.466;-1.016;2022-12-07T05:24:03;100875.84;;;0.11;80.37
65718;BME280;52445;52.466;-1.016;2022-12-07T05:26:30;100877.44;;;0.09;80.42
65718;BME280;52445;52.466;-1.016;2022-12-07T05:28:57;100878.25;;;0.08;79.78
65718;BME280;52445;52.466;-1.016;2022-12-07T05:31:25;100867.06;;;0.06;80.50
65718;BME280;52445;52.466;-1.016;2022-12-07T05:33:52;100870.44;;;0.05;79.95
65718;BME280;52445;52.466;-1.016;2022-12-07T05:36:19;100868.69;;;0.04;80.15
65718;BME280;52445;52.466;-1.016;2022-12-07T05:38:46;100869.47;;;0.03;80.07
65718;BME280;52445;52.466;-1.016;2022-12-07T05:41:16;100877.13;;;0.03;79.99
65718;BME280;52445;52.466;-1.016;2022-12-07T05:44:04;100876.16;;;0.01;80.71
65718;BME280;52445;52.466;-1.016;2022-12-07T05:46:31;100874.31;;;-0.02;80.07
65718;BME280;52445;52.466;-1.016;2022-12-07T05:48:57;100871.84;;;-0.01;80.46
65718;BME280;52445;52.466;-1.016;2022-12-07T05:51:24;100871.69;;;-0.04;80.33
65718;BME280;52445;52.466;-1.016;2022-12-07T05:53:50;100880.13;;;-0.05;79.88
65718;BME280;52445;52.466;-1.016;2022-12-07T05:56:17;100875.75;;;-0.07;79.97
65718;BME280;52445;52.466;-1.016;2022-12-07T05:58:44;100876.44;;;-0.10;79.98
65718;BME280;52445;52.466;-1.016;2022-12-07T06:01:30;100871.22;;;-0.13;79.79
65718;BME280;52445;52.466;-1.016;2022-12-07T06:03:57;100867.69;;;-0.15;80.46
65718;BME280;52445;52.466;-1.016;2022-12-07T06:06:23;100857.31;;;-0.18;80.15
65718;BME280;52445;52.466;-1.016;2022-12-07T06:08:50;100852.94;;;-0.21;79.74
65718;BME280;52445;52.466;-1.016;2022-12-07T06:11:17;100852.09;;;-0.21;79.73
65718;BME280;52445;52.466;-1.016;2022-12-07T06:14:04;100855.41;;;-0.22;80.02
65718;BME280;52445;52.466;-1.016;2022-12-07T06:16:30;100857.88;;;-0.24;80.08
65718;BME280;52445;52.466;-1.016;2022-12-07T06:18:57;100859.56;;;-0.24;80.47
65718;BME280;52445;52.466;-1.016;2022-12-07T06:21:23;100857.72;;;-0.27;80.17
65718;BME280;52445;52.466;-1.016;2022-12-07T06:23:52;100861.94;;;-0.28;80.12
65718;BME280;52445;52.466;-1.016;2022-12-07T06:26:19;100852.47;;;-0.30;80.13
65718;BME280;52445;52.466;-1.016;2022-12-07T06:28:46;100860.88;;;-0.31;81.00
65718;BME280;52445;52.466;-1.016;2022-12-07T06:31:13;100848.00;;;-0.34;79.86
65718;BME280;52445;52.466;-1.016;2022-12-07T06:33:40;100854.75;;;-0.35;80.03
65718;BME280;52445;52.466;-1.016;2022-12-07T06:36:07;100841.84;;;-0.38;80.34
65718;BME280;52445;52.466;-1.016;2022-12-07T06:38:34;100846.84;;;-0.40;80.22
65718;BME280;52445;52.466;-1.016;2022-12-07T06:41:01;100840.91;;;-0.40;79.99
65718;BME280;52445;52.466;-1.016;2022-12-07T06:43:28;100842.47;;;-0.42;80.11
65718;BME280;52445;52.466;-1.016;2022-12-07T06:45:54;100844.06;;;-0.44;80.35
65718;BME280;52445;52.466;-1.016;2022-12-07T06:48:21;100839.66;;;-0.47;80.20
65718;BME280;52445;52.466;-1.016;2022-12-07T06:50:48;100844.69;;;-0.48;79.73
65718;BME280;52445;52.466;-1.016;2022-12-07T06:53:20;100844.69;;;-0.48;80.46
65718;BME280;52445;52.466;-1.016;2022-12-07T06:55:47;100840.38;;;-0.49;80.22
65718;BME280;52445;52.466;-1.016;2022-12-07T06:58:13;100836.88;;;-0.52;80.28
65718;BME280;52445;52.466;-1.016;2022-12-07T07:00:40;100833.53;;;-0.50;79.94
65718;BME280;52445;52.466;-1.016;2022-12-07T07:03:07;100845.28;;;-0.53;80.04
65718;BME280;52445;52.466;-1.016;2022-12-07T07:05:33;100852.16;;;-0.52;80.11
65718;BME280;52445;52.466;-1.016;2022-12-07T07:08:01;100845.28;;;-0.53;80.42
65718;BME280;52445;52.466;-1.016;2022-12-07T07:10:47;100855.47;;;-0.53;80.17
65718;BME280;52445;52.466;-1.016;2022-12-07T07:13:14;100853.72;;;-0.54;80.15
65718;BME280;52445;52.466;-1.016;2022-12-07T07:15:41;100846.91;;;-0.55;79.84
65718;BME280;52445;52.466;-1.016;2022-12-07T07:18:08;100853.63;;;-0.55;80.31
65718;BME280;52445;52.466;-1.016;2022-12-07T07:20:35;100850.25;;;-0.56;79.88
65718;BME280;52445;52.466;-1.016;2022-12-07T07:23:02;100848.47;;;-0.57;80.11
65718;BME280;52445;52.466;-1.016;2022-12-07T07:25:28;100861.28;;;-0.55;80.07
65718;BME280;52445;52.466;-1.016;2022-12-07T07:27:55;100850.25;;;-0.56;80.09
65718;BME280;52445;52.466;-1.016;2022-12-07T07:30:22;100859.53;;;-0.56;80.20
65718;BME280;52445;52.466;-1.016;2022-12-07T07:32:48;100850.25;;;-0.56;80.68
65718;BME280;52445;52.466;-1.016;2022-12-07T07:35:15;100851.09;;;-0.55;80.42
65718;BME280;52445;52.466;-1.016;2022-12-07T07:37:42;100860.41;;;-0.56;80.36
65718;BME280;52445;52.466;-1.016;2022-12-07T07:40:09;100847.78;;;-0.54;80.32
65718;BME280;52445;52.466;-1.016;2022-12-07T07:42:36;100844.34;;;-0.55;80.31
65718;BME280;52445;52.466;-1.016;2022-12-07T07:45:03;100846.00;;;-0.55;80.27
65718;BME280;52445;52.466;-1.016;2022-12-07T07:47:31;100845.16;;;-0.56;80.33
65718;BME280;52445;52.466;-1.016;2022-12-07T07:49:57;100840.06;;;-0.56;80.42
65718;BME280;52445;52.466;-1.016;2022-12-07T07:52:24;100840.06;;;-0.56;80.18
65718;BME280;52445;52.466;-1.016;2022-12-07T07:54:50;100839.16;;;-0.56;80.15
65718;BME280;52445;52.466;-1.016;2022-12-07T07:57:17;100836.53;;;-0.58;80.25
65718;BME280;52445;52.466;-1.016;2022-12-07T07:59:44;100835.59;;;-0.60;80.10
65718;BME280;52445;52.466;-1.016;2022-12-07T08:02:19;100838.13;;;-0.60;79.89
65718;BME280;52445;52.466;-1.016;2022-12-07T08:04:46;100833.91;;;-0.59;80.20
65718;BME280;52445;52.466;-1.016;2022-12-07T08:07:14;100847.59;;;-0.57;80.20
65718;BME280;52445;52.466;-1.016;2022-12-07T08:09:41;100844.25;;;-0.56;80.00
65718;BME280;52445;52.466;-1.016;2022-12-07T08:12:08;100843.53;;;-0.54;80.30
65718;BME280;52445;52.466;-1.016;2022-12-07T08:14:34;100847.38;;;-0.45;80.48
65718;BME280;52445;52.466;-1.016;2022-12-07T08:17:01;100845.53;;;-0.33;80.91
65718;BME280;52445;52.466;-1.016;2022-12-07T08:19:28;100850.84;;;-0.13;80.50
65718;BME280;52445;52.466;-1.016;2022-12-07T08:21:55;100845.13;;;0.08;81.05
65718;BME280;52445;52.466;-1.016;2022-12-07T08:24:23;100846.41;;;0.33;79.84
65718;BME280;52445;52.466;-1.016;2022-12-07T08:26:49;100837.16;;;0.51;80.54
65718;BME280;52445;52.466;-1.016;2022-12-07T08:29:17;100851.59;;;0.86;80.49
65718;BME280;52445;52.466;-1.016;2022-12-07T08:31:43;100854.00;;;1.36;81.14
65718;BME280;52445;52.466;-1.016;2022-12-07T08:34:11;100852.81;;;1.84;80.07
65718;BME280;52445;52.466;-1.016;2022-12-07T08:36:37;100848.75;;;2.27;79.55
65718;BME280;52445;52.466;-1.016;2022-12-07T08:39:04;100845.81;;;2.57;79.14
65718;BME280;52445;52.466;-1.016;2022-12-07T08:41:51;100848.69;;;2.86;78.69
65718;BME280;52445;52.466;-1.016;2022-12-07T08:44:17;100846.16;;;3.07;78.47
65718;BME280;52445;52.466;-1.016;2022-12-07T08:46:50;100850.75;;;3.38;77.62
65718;BME280;52445;52.466;-1.016;2022-12-07T08:49:23;100857.56;;;3.81;77.64
65718;BME280;52445;52.466;-1.016;2022-12-07T08:51:51;100854.97;;;4.27;77.38
65718;BME280;52445;52.466;-1.016;2022-12-07T08:54:18;100849.59;;;4.70;78.07
65718;BME280;52445;52.466;-1.016;2022-12-07T08:56:46;100842.97;;;5.03;77.73
65718;BME280;52445;52.466;-1.016;2022-12-07T08:59:17;100846.75;;;5.42;77.80
65718;BME280;52445;52.466;-1.016;2022-12-07T09:01:45;100849.91;;;5.89;76.08
65718;BME280;52445;52.466;-1.016;2022-12-07T09:04:12;100850.84;;;6.21;76.56
65718;BME280;52445;52.466;-1.016;2022-12-07T09:06:38;100845.78;;;6.25;75.72
65718;BME280;52445;52.466;-1.016;2022-12-07T09:09:06;100849.69;;;6.41;75.84
65718;BME280;52445;52.466;-1.016;2022-12-07T09:11:32;100847.47;;;6.89;76.14
65718;BME280;52445;52.466;-1.016;2022-12-07T09:13:59;100843.50;;;7.39;76.23
65718;BME280;52445;52.466;-1.016;2022-12-07T09:16:25;100848.84;;;7.86;74.49
65718;BME280;52445;52.466;-1.016;2022-12-07T09:18:52;100855.84;;;8.36;75.10
65718;BME280;52445;52.466;-1.016;2022-12-07T09:21:19;100854.34;;;8.94;74.40
65718;BME280;52445;52.466;-1.016;2022-12-07T09:23:45;100863.09;;;9.59;73.85
65718;BME280;52445;52.466;-1.016;2022-12-07T09:26:12;100850.16;;;10.27;72.28
65718;BME280;52445;52.466;-1.016;2022-12-07T09:28:38;100850.78;;;10.84;72.44
65718;BME280;52445;52.466;-1.016;2022-12-07T09:31:06;100850.34;;;11.42;70.47
65718;BME280;52445;52.466;-1.016;2022-12-07T09:33:59;100844.66;;;12.04;69.98
65718;BME280;52445;52.466;-1.016;2022-12-07T09:36:27;100845.63;;;12.38;68.11
65718;BME280;52445;52.466;-1.016;2022-12-07T09:38:54;100843.06;;;12.52;68.16
65718;BME280;52445;52.466;-1.016;2022-12-07T09:41:23;100846.53;;;12.43;67.72
65718;BME280;52445;52.466;-1.016;2022-12-07T09:43:50;100848.19;;;12.16;66.44
65718;BME280;52445;52.466;-1.016;2022-12-07T09:46:19;100853.41;;;12.28;67.45
65718;BME280;52445;52.466;-1.016;2022-12-07T09:48:48;100845.72;;;12.78;66.61
65718;BME280;52445;52.466;-1.016;2022-12-07T09:51:19;100844.84;;;13.29;65.31
65718;BME280;52445;52.466;-1.016;2022-12-07T09:53:51;100851.66;;;13.90;64.21
65718;BME280;52445;52.466;-1.016;2022-12-07T09:56:19;100853.16;;;14.42;63.61
65718;BME280;52445;52.466;-1.016;2022-12-07T09:58:46;100856.34;;;14.93;62.59
65718;BME280;52445;52.466;-1.016;2022-12-07T10:01:17;100843.78;;;15.35;61.03
65718;BME280;52445;52.466;-1.016;2022-12-07T10:03:52;100853.81;;;15.73;59.75
65718;BME280;52445;52.466;-1.016;2022-12-07T10:06:20;100848.22;;;16.07;59.44
65718;BME280;52445;52.466;-1.016;2022-12-07T10:08:47;100845.16;;;16.41;57.88
65718;BME280;52445;52.466;-1.016;2022-12-07T10:11:14;100845.44;;;16.81;56.33
65718;BME280;52445;52.466;-1.016;2022-12-07T10:13:45;100838.94;;;17.07;55.43
65718;BME280;52445;52.466;-1.016;2022-12-07T10:16:41;100842.06;;;16.73;54.80
65718;BME280;52445;52.466;-1.016;2022-12-07T10:19:26;100835.91;;;16.15;53.49
65718;BME280;52445;52.466;-1.016;2022-12-07T10:22:14;100834.41;;;15.12;50.81
65718;BME280;52445;52.466;-1.016;2022-12-07T10:24:43;100837.59;;;14.25;54.46
65718;BME280;52445;52.466;-1.016;2022-12-07T10:27:22;100828.34;;;13.30;54.50
65718;BME280;52445;52.466;-1.016;2022-12-07T10:29:52;100830.97;;;12.60;56.34
65718;BME280;52445;52.466;-1.016;2022-12-07T10:35:31;100818.53;;;11.70;52.73
65718;BME280;52445;52.466;-1.016;2022-12-07T10:37:59;100816.41;;;11.07;55.02
65718;BME280;52445;52.466;-1.016;2022-12-07T10:40:35;100822.84;;;10.54;55.82
65718;BME280;52445;52.466;-1.016;2022-12-07T10:43:17;100819.72;;;10.06;57.00
65718;BME280;52445;52.466;-1.016;2022-12-07T11:05:51;100797.19;;;7.42;60.53
65718;BME280;52445;52.466;-1.016;2022-12-07T11:11:34;100790.84;;;6.91;61.78
65718;BME280;52445;52.466;-1.016;2022-12-07T11:14:20;100783.38;;;6.66;61.23
65718;BME280;52445;52.466;-1.016;2022-12-07T11:19:49;100778.09;;;6.28;62.41
65718;BME280;52445;52.466;-1.016;2022-12-07T11:22:35;100778.53;;;6.11;62.87
65718;BME280;52445;52.466;-1.016;2022-12-07T11:42:00;100752.81;;;6.11;64.87
65718;BME280;52445;52.466;-1.016;2022-12-07T11:47:13;100737.16;;;6.36;64.17
65718;BME280;52445;52.466;-1.016;2022-12-07T11:49:50;100740.69;;;6.07;63.53
65718;BME280;52445;52.466;-1.016;2022-12-07T11:52:27;100745.84;;;5.76;64.04
65718;BME280;52445;52.466;-1.016;2022-12-07T11:54:57;100737.56;;;5.56;64.79
65718;BME280;52445;52.466;-1.016;2022-12-07T11:57:32;100721.69;;;5.40;65.26
65718;BME280;52445;52.466;-1.016;2022-12-07T12:00:05;100717.09;;;5.30;64.29
65718;BME280;52445;52.466;-1.016;2022-12-07T12:05:25;100723.97;;;5.02;65.64
65718;BME280;52445;52.466;-1.016;2022-12-07T12:08:09;100720.09;;;4.87;64.82
65718;BME280;52445;52.466;-1.016;2022-12-07T12:11:15;100715.25;;;4.69;65.22
65718;BME280;52445;52.466;-1.016;2022-12-07T12:22:41;100708.94;;;4.32;66.25
65718;BME280;52445;52.466;-1.016;2022-12-07T12:25:29;100700.97;;;4.24;67.00
65718;BME280;52445;52.466;-1.016;2022-12-07T12:27:59;100692.44;;;4.25;66.77
65718;BME280;52445;52.466;-1.016;2022-12-07T12:33:21;100680.72;;;4.32;67.45
65718;BME280;52445;52.466;-1.016;2022-12-07T12:50:16;100655.22;;;3.84;68.24
65718;BME280;52445;52.466;-1.016;2022-12-07T12:55:22;100643.97;;;3.81;68.51
65718;BME280;52445;52.466;-1.016;2022-12-07T13:01:36;100637.66;;;3.71;68.97
65718;BME280;52445;52.466;-1.016;2022-12-07T13:04:18;100640.06;;;3.66;68.98
65718;BME280;52445;52.466;-1.016;2022-12-07T13:06:47;100626.38;;;3.66;69.34
65718;BME280;52445;52.466;-1.016;2022-12-07T13:09:21;100628.03;;;3.64;69.67
65718;BME280;52445;52.466;-1.016;2022-12-07T13:11:56;100635.56;;;3.59;69.82
65718;BME280;52445;52.466;-1.016;2022-12-07T13:14:52;100631.91;;;3.52;69.78
65718;BME280;52445;52.466;-1.016;2022-12-07T13:20:40;100624.16;;;3.51;69.85
65718;BME280;52445;52.466;-1.016;2022-12-07T13:23:07;100620.78;;;3.52;70.58
65718;BME280;52445;52.466;-1.016;2022-12-07T13:25:41;100623.41;;;3.53;70.37
65718;BME280;52445;52.466;-1.016;2022-12-07T13:28:16;100616.53;;;3.52;70.52
65718;BME280;52445;52.466;-1.016;2022-12-07T13:30:50;100608.03;;;3.53;70.49
65718;BME280;52445;52.466;-1.016;2022-12-07T13:33:23;100607.91;;;3.50;70.65
65718;BME280;52445;52.466;-1.016;2022-12-07T13:35:53;100604.53;;;3.51;70.74
65718;BME280;52445;52.466;-1.016;2022-12-07T13:38:36;100606.06;;;3.46;70.65
65718;BME280;52445;52.466;-1.016;2022-12-07T13:41:21;100596.66;;;3.45;71.14
65718;BME280;52445;52.466;-1.016;2022-12-07T13:43:52;100599.31;;;3.48;71.10
65718;BME280;52445;52.466;-1.016;2022-12-07T13:46:26;100591.53;;;3.45;70.86
65718;BME280;52445;52.466;-1.016;2022-12-07T13:48:57;100587.19;;;3.44;71.60
65718;BME280;52445;52.466;-1.016;2022-12-07T13:51:26;100592.31;;;3.44;71.07
65718;BME280;52445;52.466;-1.016;2022-12-07T13:53:57;100584.59;;;3.42;71.21
65718;BME280;52445;52.466;-1.016;2022-12-07T13:56:32;100582.06;;;3.42;71.28
65718;BME280;52445;52.466;-1.016;2022-12-07T13:58:59;100576.88;;;3.41;70.97
65718;BME280;52445;52.466;-1.016;2022-12-07T14:01:26;100573.47;;;3.42;71.29
65718;BME280;52445;52.466;-1.016;2022-12-07T14:03:54;100564.84;;;3.40;71.35
65718;BME280;52445;52.466;-1.016;2022-12-07T14:06:26;100565.75;;;3.40;71.11
65718;BME280;52445;52.466;-1.016;2022-12-07T14:09:17;100559.66;;;3.37;71.41
65718;BME280;52445;52.466;-1.016;2022-12-07T14:11:45;100555.31;;;3.36;71.64
65718;BME280;52445;52.466;-1.016;2022-12-07T14:14:17;100550.91;;;3.31;71.24
65718;BME280;52445;52.466;-1.016;2022-12-07T14:16:55;100558.53;;;3.30;71.44
65718;BME280;52445;52.466;-1.016;2022-12-07T14:22:29;100553.28;;;3.25;72.04
65718;BME280;52445;52.466;-1.016;2022-12-07T14:27:36;100550.63;;;3.22;72.13
65718;BME280;52445;52.466;-1.016;2022-12-07T14:30:04;100552.22;;;3.20;71.33
65718;BME280;52445;52.466;-1.016;2022-12-07T14:32:34;100547.09;;;3.20;72.07
65718;BME280;52445;52.466;-1.016;2022-12-07T14:37:46;100535.03;;;3.16;71.62
65718;BME280;52445;52.466;-1.016;2022-12-07T14:40:23;100535.03;;;3.16;72.23
65718;BME280;52445;52.466;-1.016;2022-12-07T14:42:54;100538.41;;;3.15;71.44
65718;BME280;52445;52.466;-1.016;2022-12-07T14:45:22;100534.91;;;3.13;71.96
65718;BME280;52445;52.466;-1.016;2022-12-07T14:47:49;100530.50;;;3.08;72.25
65718;BME280;52445;52.466;-1.016;2022-12-07T14:50:38;100530.41;;;3.05;72.59
65718;BME280;52445;52.466;-1.016;2022-12-07T14:53:30;100520.00;;;3.01;72.44
65718;BME280;52445;52.466;-1.016;2022-12-07T14:55:59;100527.50;;;2.96;72.35
65718;BME280;52445;52.466;-1.016;2022-12-07T14:58:26;100535.72;;;2.87;71.84
65718;BME280;52445;52.466;-1.016;2022-12-07T15:00:53;100531.41;;;2.86;71.76
65718;BME280;52445;52.466;-1.016;2022-12-07T15:03:19;100532.94;;;2.81;73.12
65718;BME280;52445;52.466;-1.016;2022-12-07T15:05:46;100530.31;;;2.79;72.63
65718;BME280;52445;52.466;-1.016;2022-12-07T15:08:13;100540.44;;;2.76;72.81
65718;BME280;52445;52.466;-1.016;2022-12-07T15:10:40;100544.59;;;2.73;72.22
65718;BME280;52445;52.466;-1.016;2022-12-07T15:13:07;100533.34;;;2.69;72.52
65718;BME280;52445;52.466;-1.016;2022-12-07T15:15:54;100530.66;;;2.66;72.57
65718;BME280;52445;52.466;-1.016;2022-12-07T15:18:22;100533.13;;;2.63;72.43
65718;BME280;52445;52.466;-1.016;2022-12-07T15:20:49;100530.47;;;2.60;72.99
65718;BME280;52445;52.466;-1.016;2022-12-07T15:23:16;100532.00;;;2.56;72.70
65718;BME280;52445;52.466;-1.016;2022-12-07T15:25:45;100525.81;;;2.49;72.83
65718;BME280;52445;52.466;-1.016;2022-12-07T15:28:13;100522.22;;;2.44;72.56
65718;BME280;52445;52.466;-1.016;2022-12-07T15:30:41;100517.78;;;2.40;72.02
65718;BME280;52445;52.466;-1.016;2022-12-07T15:33:10;100521.03;;;2.36;73.48